SV1LH-1 Melissia GR current weather conditions

sailwx.info

Wind from 022 at 6 knots gusting 12

Air temperature 27.8° C
Dewpoint 8.6° C

Last reported at 2015-Jul-02 11:50 UTC.
Time now 2015-Jul-02 12:37 UTC

Location: N 38°03' E 023°51'.
View on Google Maps.

See reports from other nearby stations

  
Tides and Currents Weather Stations Pressure Air Temp Water Temp Dewpoint Dewpoint Depression Visibility Wind Speed Wind Dir Waves Ship Positions
date/time (UTC)wind fromknots sea level pressurealtimeterstation pressurevisibilityair tempwater tempwave heightnotes
2015-Jul-02 11:50 022 6 gusting 12 27.8
2015-Jul-02 11:45 090 8 gusting 13 27.8
2015-Jul-02 11:40 315 6 gusting 11 27.2
2015-Jul-02 11:35 022 9 gusting 16 27.2
2015-Jul-02 11:30 27.2
2015-Jul-02 11:25 337 8 gusting 13 26.7
2015-Jul-02 11:20 045 13 gusting 20 26.7
2015-Jul-02 11:15 022 10 gusting 16 26.7
2015-Jul-02 11:10 045 8 gusting 14 27.2
2015-Jul-02 11:05 022 13 gusting 19 27.2
2015-Jul-02 11:00 045 8 gusting 18 27.2
2015-Jul-02 10:55 022 10 gusting 18 27.2
2015-Jul-02 10:50 27.2
2015-Jul-02 10:45 26.7
2015-Jul-02 10:40 26.7
2015-Jul-02 10:35 112 10 gusting 18 26.7
2015-Jul-02 10:30 225 7 gusting 14 26.7
2015-Jul-02 10:25 315 9 gusting 16 26.7
2015-Jul-02 10:20 045 8 gusting 15 26.7
2015-Jul-02 10:15 337 6 gusting 13 27.2
2015-Jul-02 10:10 045 10 gusting 20 27.2
2015-Jul-02 10:05 27.2
2015-Jul-02 10:00 135 4 gusting 9 27.2
2015-Jul-02 09:55 26.7
2015-Jul-02 09:50 045 4 gusting 6 26.7
2015-Jul-02 09:45 26.1
2015-Jul-02 09:40 26.1
2015-Jul-02 09:35 022 8 gusting 13 26.1
2015-Jul-02 09:30 26.1
2015-Jul-02 09:25 045 9 gusting 12 26.7
2015-Jul-02 09:20 022 6 gusting 10 26.7
2015-Jul-02 09:15 022 7 gusting 13 26.1
2015-Jul-02 09:10 26.1
2015-Jul-02 09:05 022 10 gusting 13 26.7
2015-Jul-02 09:00 045 9 gusting 16 26.7
2015-Jul-02 08:55 26.1
2015-Jul-02 08:50 022 10 gusting 14 26.1
2015-Jul-02 08:45 26.1
2015-Jul-02 08:40 337 7 gusting 13 25.6
2015-Jul-02 08:35 045 11 gusting 18 25.6
2015-Jul-02 08:30 26.1
2015-Jul-02 08:24 25.6
2015-Jul-02 08:20 270 3 gusting 6 25.6
2015-Jul-02 08:15 045 13 gusting 18 25.6
2015-Jul-02 08:10 25.6
2015-Jul-02 08:05 045 5 gusting 9 25.6
2015-Jul-02 08:00 25.6
2015-Jul-02 07:55 315 6 gusting 10 25.0
2015-Jul-02 07:50 25.0
2015-Jul-02 07:45 25.0
2015-Jul-02 07:40 112 10 gusting 13 25.0
2015-Jul-02 07:35 135 7 gusting 13 25.0
2015-Jul-02 07:30 022 6 gusting 13 24.4
2015-Jul-02 07:25 022 10 gusting 19 23.9
2015-Jul-02 07:19 022 13 gusting 20 23.3
2015-Jul-02 07:15 045 15 gusting 25 22.8
2015-Jul-02 07:10 022 12 gusting 19 22.2
2015-Jul-02 07:05 045 15 gusting 23 22.8
2015-Jul-02 07:00 23.3
2015-Jul-02 06:55 045 12 gusting 17 23.3
2015-Jul-02 06:50 22.8
2015-Jul-02 06:45 22.8
2015-Jul-02 06:40 022 13 gusting 19 22.2
2015-Jul-02 06:35 045 11 gusting 18 22.8
2015-Jul-02 06:30 23.3
2015-Jul-02 06:25 045 12 gusting 19 23.3
2015-Jul-02 06:20 045 13 gusting 25 23.3
2015-Jul-02 06:15 045 10 gusting 16 22.8
2015-Jul-02 06:10 045 13 gusting 19 22.8
2015-Jul-02 06:05 337 12 gusting 18 22.8
2015-Jul-02 06:00 022 12 gusting 18 22.8
2015-Jul-02 05:55 315 11 gusting 16 22.2
2015-Jul-02 05:50 045 13 gusting 20 22.2
2015-Jul-02 05:45 022 13 gusting 20 22.2
2015-Jul-02 05:40 22.2
2015-Jul-02 05:35 045 12 gusting 17 22.2
2015-Jul-02 05:30 022 12 gusting 19 21.7
2015-Jul-02 05:25 21.7
2015-Jul-02 05:20 045 8 gusting 13 21.1
2015-Jul-02 05:15 045 7 gusting 10 21.1
2015-Jul-02 05:10 337 12 gusting 15 21.1
2015-Jul-02 05:05 045 12 gusting 16 20.6
2015-Jul-02 05:00 022 11 gusting 17 20.6
2015-Jul-02 04:55 20.6
2015-Jul-02 04:50 337 11 gusting 17 20.6
2015-Jul-02 04:45 20.6
2015-Jul-02 04:40 022 12 gusting 16 20.0
2015-Jul-02 04:35 022 6 gusting 12 20.0
2015-Jul-02 04:30 20.0
2015-Jul-02 04:25 045 7 gusting 11 20.0
2015-Jul-02 04:20 045 9 gusting 13 19.4
2015-Jul-02 04:15 022 6 gusting 12 19.4
2015-Jul-02 04:10 18.9
2015-Jul-02 04:05 022 6 gusting 12 18.9
2015-Jul-02 04:00 337 6 gusting 7 18.9
2015-Jul-02 03:55 022 6 gusting 9 18.3
2015-Jul-02 03:50 045 8 gusting 11 18.3
2015-Jul-02 03:45 18.3
2015-Jul-02 03:40 022 9 gusting 15 18.3
2015-Jul-02 03:35 315 11 gusting 16 18.3
2015-Jul-02 03:30 18.3
2015-Jul-02 03:25 045 6 gusting 13 18.3
2015-Jul-02 03:20 022 7 gusting 11 18.3
2015-Jul-02 03:15 18.3
2015-Jul-02 03:10 045 12 gusting 17 18.3
2015-Jul-02 03:05 337 6 gusting 11 18.3
2015-Jul-02 03:00 17.8
2015-Jul-02 02:55 17.8
2015-Jul-02 02:50 18.3
2015-Jul-02 02:45 022 9 gusting 15 18.3
2015-Jul-02 02:40 18.3
2015-Jul-02 02:35 18.3
2015-Jul-02 02:30 022 6 gusting 10 18.3
2015-Jul-02 02:25 18.3
2015-Jul-02 02:20 18.3
2015-Jul-02 02:15 045 6 gusting 11 18.3
2015-Jul-02 02:10 045 7 gusting 13 18.3
2015-Jul-02 02:05 315 8 gusting 12 18.3
2015-Jul-02 02:00 337 7 gusting 11 17.8
2015-Jul-02 01:55 17.8
2015-Jul-02 01:50 17.8
2015-Jul-02 01:45 022 5 gusting 7 17.8
2015-Jul-02 01:40 090 8 gusting 11 17.8
2015-Jul-02 01:35 045 5 gusting 7 17.8
2015-Jul-02 01:30 090 5 gusting 7 17.8
2015-Jul-02 01:25 17.8
2015-Jul-02 01:20 337 6 gusting 11 17.8
2015-Jul-02 01:15 17.8
2015-Jul-02 01:10 337 5 gusting 6 17.8
2015-Jul-02 01:05 292 3 gusting 7 17.8
2015-Jul-02 01:00 17.8
2015-Jul-02 00:55 045 5 gusting 8 18.3
2015-Jul-02 00:50 337 5 gusting 8 18.3
2015-Jul-02 00:45 337 6 gusting 9 18.3
2015-Jul-02 00:40 180 6 gusting 10 18.3
2015-Jul-02 00:35 18.3
2015-Jul-02 00:30 315 7 gusting 11 18.3
2015-Jul-02 00:25 315 5 gusting 7 18.3
2015-Jul-02 00:20 337 7 gusting 10 18.3
2015-Jul-02 00:15 18.3
2015-Jul-02 00:10 18.3
2015-Jul-02 00:05 337 4 gusting 6 18.3
2015-Jul-02 00:00 337 6 gusting 8 18.3
2015-Jul-01 23:55 315 3 gusting 7 18.3
2015-Jul-01 23:50 337 7 gusting 11 18.3
2015-Jul-01 23:45 18.3
2015-Jul-01 23:40 292 6 gusting 11 18.3
2015-Jul-01 23:35 18.3
2015-Jul-01 23:30 022 3 gusting 6 18.3
2015-Jul-01 23:25 18.3
2015-Jul-01 23:20 270 3 gusting 9 18.3
2015-Jul-01 23:15 045 6 gusting 10 18.3
2015-Jul-01 23:10 247 5 gusting 6 18.3
2015-Jul-01 23:05 045 4 gusting 6 18.3
2015-Jul-01 23:00 315 3 gusting 7 18.3
2015-Jul-01 22:55 337 5 gusting 6 18.3
2015-Jul-01 22:50 270 3 gusting 6 18.3
2015-Jul-01 22:45 315 4 gusting 6 18.3
2015-Jul-01 22:40 270 2 gusting 3 18.3
2015-Jul-01 22:35 315 3 gusting 6 18.3
2015-Jul-01 22:30 225 2 gusting 4 18.3
2015-Jul-01 22:25 337 1 gusting 1 18.3
2015-Jul-01 22:20 225 1 gusting 3 18.3
2015-Jul-01 22:15 022 0 gusting 2 18.3
2015-Jul-01 22:10 202 1 gusting 2 18.9
2015-Jul-01 22:05 337 1 gusting 1 18.9
2015-Jul-01 22:00 18.9
2015-Jul-01 21:55 292 2 gusting 5 18.9
2015-Jul-01 21:50 270 1 gusting 2 18.9
2015-Jul-01 21:45 18.9
2015-Jul-01 21:40 202 4 gusting 5 19.4
2015-Jul-01 21:35 247 2 gusting 4 19.4
2015-Jul-01 21:30 270 2 gusting 4 19.4
2015-Jul-01 21:25 067 4 gusting 7 19.4
2015-Jul-01 21:20 315 3 gusting 5 19.4
2015-Jul-01 21:15 19.4
2015-Jul-01 21:10 19.4
2015-Jul-01 21:05 19.4
2015-Jul-01 21:00 022 5 gusting 6 19.4
2015-Jul-01 20:55 19.4
2015-Jul-01 20:50 045 3 gusting 6 19.4
2015-Jul-01 20:45 090 5 gusting 8 19.4
2015-Jul-01 20:40 045 5 gusting 10 19.4
2015-Jul-01 20:35 337 6 gusting 7 19.4
2015-Jul-01 20:30 18.9
2015-Jul-01 20:25 247 3 gusting 6 18.9
2015-Jul-01 20:20 18.9
2015-Jul-01 20:15 315 1 gusting 3 18.9
2015-Jul-01 20:10 337 4 gusting 6 18.9
2015-Jul-01 20:05 022 1 gusting 3 18.9
2015-Jul-01 20:00 315 2 gusting 3 18.9
2015-Jul-01 19:55 315 1 gusting 2 18.9
2015-Jul-01 19:50 18.9
2015-Jul-01 19:45 315 1 gusting 3 18.9
2015-Jul-01 19:40 18.9
2015-Jul-01 19:35 270 2 gusting 5 18.9
2015-Jul-01 19:30 19.4
2015-Jul-01 19:25 19.4
2015-Jul-01 19:20 19.4
2015-Jul-01 19:15 337 5 gusting 7 19.4
2015-Jul-01 19:10 19.4
2015-Jul-01 19:05 022 5 gusting 10 19.4
2015-Jul-01 19:00 022 5 gusting 6 19.4
2015-Jul-01 18:55 19.4
2015-Jul-01 18:50 19.4
2015-Jul-01 18:45 337 5 gusting 6 19.4
2015-Jul-01 18:40 315 3 gusting 6 20.0
2015-Jul-01 18:35 022 1 gusting 2 20.0
2015-Jul-01 18:30 20.0
2015-Jul-01 18:25 337 2 gusting 3 20.0
2015-Jul-01 18:20 20.0
2015-Jul-01 18:15 022 5 gusting 7 20.0
2015-Jul-01 18:10 20.0
2015-Jul-01 18:05 315 3 gusting 5 20.6
2015-Jul-01 18:00 045 3 gusting 8 20.6
2015-Jul-01 17:55 247 3 gusting 6 20.6
2015-Jul-01 17:50 292 3 gusting 5 20.6
2015-Jul-01 17:45 20.6
2015-Jul-01 17:40 022 4 gusting 6 21.1
2015-Jul-01 17:35 21.7
2015-Jul-01 17:30 022 2 gusting 6 21.7
2015-Jul-01 17:25 022 4 gusting 7 21.7
2015-Jul-01 17:20 292 2 gusting 4 22.2
2015-Jul-01 17:15 045 6 gusting 9 22.2
2015-Jul-01 17:10 022 6 gusting 7 22.8
2015-Jul-01 17:05 045 4 gusting 7 22.8
2015-Jul-01 17:00 090 3 gusting 6 23.3
2015-Jul-01 16:55 23.3
2015-Jul-01 16:50 067 3 gusting 6 23.3
2015-Jul-01 16:45 337 7 gusting 13 23.9
2015-Jul-01 16:40 067 6 gusting 12 23.9
2015-Jul-01 16:35 112 1 gusting 4 23.9
2015-Jul-01 16:30 337 8 gusting 12 24.4
2015-Jul-01 16:25 045 4 gusting 6 24.4
2015-Jul-01 16:20 022 3 gusting 6 24.4
2015-Jul-01 16:15 067 3 gusting 6 24.4
2015-Jul-01 16:10 045 4 gusting 6 25.0
2015-Jul-01 16:05 25.0
2015-Jul-01 16:00 045 6 gusting 11 25.0
2015-Jul-01 15:55 045 4 gusting 9 25.0
2015-Jul-01 15:50 067 8 gusting 12 25.0
2015-Jul-01 15:45 090 5 gusting 9 25.6
2015-Jul-01 15:40 067 4 gusting 7 26.1
2015-Jul-01 15:35 292 4 gusting 8 26.1
2015-Jul-01 15:30 045 6 gusting 7 26.1
2015-Jul-01 15:25 26.1
2015-Jul-01 15:20 135 2 gusting 6 26.7
2015-Jul-01 15:15 270 1 gusting 5 26.7
2015-Jul-01 15:10 022 5 gusting 6 26.7
2015-Jul-01 15:05 090 4 gusting 7 26.7
2015-Jul-01 15:00 270 4 gusting 7 26.7
2015-Jul-01 14:55 135 2 gusting 4 26.1
2015-Jul-01 14:50 26.1
2015-Jul-01 14:45 045 6 gusting 10 26.7
2015-Jul-01 14:40 090 2 gusting 5 27.2
2015-Jul-01 14:35 067 4 gusting 6 26.7
2015-Jul-01 14:30 26.1
2015-Jul-01 14:25 337 4 gusting 6 25.0
2015-Jul-01 14:20 067 2 gusting 4 23.9
2015-Jul-01 14:15 157 1 gusting 2 23.9
2015-Jul-01 14:10 23.9
2015-Jul-01 14:05 23.9
2015-Jul-01 14:00 045 5 gusting 6 24.4
2015-Jul-01 13:55 25.0
2015-Jul-01 13:50 045 3 gusting 5 26.1
2015-Jul-01 13:45 27.2
2015-Jul-01 13:40 27.8
2015-Jul-01 13:35 045 8 gusting 13 27.8
2015-Jul-01 13:30 112 4 gusting 9 27.8
2015-Jul-01 13:25 27.2
2015-Jul-01 13:20 022 6 gusting 8 27.2
2015-Jul-01 13:15 26.7
2015-Jul-01 13:10 337 5 gusting 7 25.6
2015-Jul-01 13:05 045 6 gusting 9 25.6
2015-Jul-01 13:00 022 6 gusting 10 26.1
2015-Jul-01 12:55 045 4 gusting 7 26.7
2015-Jul-01 12:50 067 3 gusting 6 27.8
2015-Jul-01 12:45 292 3 gusting 6 27.8
2015-Jul-01 12:40 28.3
2015-Jul-01 12:35 28.3
2015-Jul-01 12:30 292 2 gusting 4 27.8
2015-Jul-01 12:25 27.8
2015-Jul-01 12:20 337 4 gusting 6 27.8
2015-Jul-01 12:15 045 6 gusting 8 27.8
2015-Jul-01 12:10 045 3 gusting 5 27.2
2015-Jul-01 12:05 022 6 gusting 10 27.2
2015-Jul-01 12:00 045 7 gusting 10 27.2
2015-Jul-01 11:55 27.2
2015-Jul-01 11:50 27.2
2015-Jul-01 11:45 022 6 gusting 9 27.2
2015-Jul-01 11:40 315 5 gusting 6 27.2
2015-Jul-01 11:35 045 5 gusting 9 26.7
2015-Jul-01 11:30 26.7
2015-Jul-01 11:25 26.7
2015-Jul-01 11:20 045 5 gusting 9 26.7
2015-Jul-01 11:15 022 6 gusting 6 26.7
2015-Jul-01 11:10 26.7
2015-Jul-01 11:05 26.7
2015-Jul-01 11:00 26.7
2015-Jul-01 10:55 022 6 gusting 9 26.7
2015-Jul-01 10:50 067 5 gusting 9 26.7
2015-Jul-01 10:45 045 5 gusting 7 26.7
2015-Jul-01 10:40 022 5 gusting 10 26.7
2015-Jul-01 10:35 26.7
2015-Jul-01 10:30 135 2 gusting 5 26.1
2015-Jul-01 10:25 337 8 gusting 11 26.1
2015-Jul-01 10:20 315 2 gusting 4 26.1
2015-Jul-01 10:15 067 8 gusting 10 26.1
2015-Jul-01 10:10 26.1
2015-Jul-01 10:05 045 6 gusting 10 26.1
2015-Jul-01 10:00 045 3 gusting 6 26.1
2015-Jul-01 09:55 022 3 gusting 6 26.7
2015-Jul-01 09:50 26.7
2015-Jul-01 09:45 26.1
2015-Jul-01 09:40 157 6 gusting 6 26.1
2015-Jul-01 09:35 270 3 gusting 5 25.6
2015-Jul-01 09:30 022 6 gusting 11 25.6
2015-Jul-01 09:25 25.6
2015-Jul-01 09:20 090 6 gusting 8 25.6
2015-Jul-01 09:15 045 5 gusting 8 26.1
2015-Jul-01 09:10 270 3 gusting 5 25.6
2015-Jul-01 09:05 045 9 gusting 13 25.6
2015-Jul-01 09:00 045 5 gusting 6 25.6
2015-Jul-01 08:55 337 8 gusting 12 25.0
2015-Jul-01 08:50 090 5 gusting 7 25.0
2015-Jul-01 08:45 045 9 gusting 13 25.0
2015-Jul-01 08:40 25.0
2015-Jul-01 08:35 067 6 gusting 11 25.0
2015-Jul-01 08:30 067 6 gusting 9 25.0
2015-Jul-01 08:25 045 8 gusting 13 25.6
2015-Jul-01 08:20 25.0
2015-Jul-01 08:15 045 3 gusting 6 25.0
2015-Jul-01 08:10 090 7 gusting 11 25.0
2015-Jul-01 08:05 225 4 gusting 7 25.0
2015-Jul-01 08:00 25.0
2015-Jul-01 07:55 045 7 gusting 12 25.0
2015-Jul-01 07:50 067 5 gusting 8 25.6
2015-Jul-01 07:45 045 6 gusting 8 25.6
2015-Jul-01 07:40 315 6 gusting 9 25.6
2015-Jul-01 07:35 022 2 gusting 4 25.6
2015-Jul-01 07:30 045 0 gusting 3 25.0
2015-Jul-01 07:25 045 5 gusting 6 24.4
2015-Jul-01 07:20 067 4 gusting 6 24.4
2015-Jul-01 07:15 045 5 gusting 6 24.4
2015-Jul-01 07:10 090 5 gusting 6 24.4
2015-Jul-01 07:05 337 5 gusting 6 24.4
2015-Jul-01 07:00 045 5 gusting 6 25.0
2015-Jul-01 06:55 180 3 gusting 6 24.4
2015-Jul-01 06:50 022 6 gusting 8 25.0
2015-Jul-01 06:45 315 5 gusting 8 25.6
2015-Jul-01 06:40 112 1 gusting 3 25.6
2015-Jul-01 06:35 315 1 gusting 2 25.6
2015-Jul-01 06:30 180 1 gusting 6 25.0
2015-Jul-01 06:25 067 4 gusting 6 25.0
2015-Jul-01 06:20 045 3 gusting 5 25.6
2015-Jul-01 06:15 022 0 gusting 1 25.6
2015-Jul-01 06:10 045 0 gusting 2 25.0
2015-Jul-01 06:05 180 1 gusting 2 25.0
2015-Jul-01 06:00 180 3 gusting 4 25.0
2015-Jul-01 05:55 202 1 gusting 2 25.0
2015-Jul-01 05:50 247 24.4
2015-Jul-01 05:45 337 3 gusting 4 23.9
2015-Jul-01 05:40 292 2 gusting 4 24.4
2015-Jul-01 05:35 337 0 gusting 1 23.9
2015-Jul-01 05:30 067 23.3
2015-Jul-01 05:25 270 22.8
2015-Jul-01 05:20 247 2 gusting 3 22.2
2015-Jul-01 05:15 270 0 gusting 1 21.7
2015-Jul-01 05:10 315 21.1
2015-Jul-01 05:05 180 2 gusting 3 20.6
2015-Jul-01 05:00 045 19.4
2015-Jul-01 04:55 090 0 gusting 3 19.4
2015-Jul-01 04:50 337 0 gusting 3 19.4
2015-Jul-01 04:45 045 2 gusting 4 19.4
2015-Jul-01 04:40 022 19.4
2015-Jul-01 04:35 19.4
2015-Jul-01 04:30 112 2 gusting 5 18.3
2015-Jul-01 04:25 292 17.8
2015-Jul-01 04:20 292 18.3
2015-Jul-01 04:15 270 17.8
2015-Jul-01 04:10 157 1 gusting 2 17.2
2015-Jul-01 04:05 247 16.7
2015-Jul-01 04:00 067 16.1
2015-Jul-01 03:55 270 16.1
2015-Jul-01 03:50 022 0 gusting 1 15.6
2015-Jul-01 03:45 067 15.6
2015-Jul-01 03:40 067 15.0
2015-Jul-01 03:35 067 14.4
2015-Jul-01 03:30 090 14.4
2015-Jul-01 03:25 090 14.4
2015-Jul-01 03:20 090 0 gusting 1 14.4
2015-Jul-01 03:15 045 14.4
2015-Jul-01 03:10 067 14.4
2015-Jul-01 03:05 067 14.4
2015-Jul-01 03:00 045 14.4
2015-Jul-01 02:55 090 1 gusting 2 14.4
2015-Jul-01 02:50 067 1 gusting 1 14.4
2015-Jul-01 02:45 090 0 gusting 1 14.4
2015-Jul-01 02:40 090 1 gusting 2 14.4
2015-Jul-01 02:35 090 13.9
2015-Jul-01 02:30 090 0 gusting 1 13.9
2015-Jul-01 02:25 067 0 gusting 0 13.9
2015-Jul-01 02:20 112 14.4
2015-Jul-01 02:15 022 14.4
2015-Jul-01 02:10 022 14.4
2015-Jul-01 02:05 045 15.0
2015-Jul-01 02:00 090 0 gusting 2 15.0
2015-Jul-01 01:55 112 0 gusting 1 15.0
2015-Jul-01 01:50 045 0 gusting 1 15.0
2015-Jul-01 01:45 090 1 gusting 2 15.0
2015-Jul-01 01:40 090 14.4
2015-Jul-01 01:35 090 14.4
2015-Jul-01 01:30 112 1 gusting 2 14.4
2015-Jul-01 01:25 067 14.4
2015-Jul-01 01:20 090 14.4
2015-Jul-01 01:15 067 0 gusting 1 14.4
2015-Jul-01 01:10 090 14.4
2015-Jul-01 01:05 022 14.4
2015-Jul-01 01:00 045 0 gusting 1 14.4
2015-Jul-01 00:55 090 0 gusting 1 14.4
2015-Jul-01 00:50 090 0 gusting 1 14.4
2015-Jul-01 00:45 045 14.4
2015-Jul-01 00:40 045 0 gusting 0 14.4
2015-Jul-01 00:35 090 0 gusting 0 15.0
2015-Jul-01 00:30 067 15.0
2015-Jul-01 00:25 112 1 gusting 2 15.0
2015-Jul-01 00:20 090 0 gusting 1 15.0
2015-Jul-01 00:15 067 15.0
2015-Jul-01 00:10 067 15.0
2015-Jul-01 00:05 090 0 gusting 1 15.0
2015-Jul-01 00:00 090 15.0
2015-Jun-30 23:55 090 15.0
2015-Jun-30 23:50 090 0 gusting 1 15.0
2015-Jun-30 23:45 112 14.4
2015-Jun-30 23:40 090 14.4
2015-Jun-30 23:35 090 14.4
2015-Jun-30 23:30 112 0 gusting 0 14.4
2015-Jun-30 23:25 090 0 gusting 0 14.4
2015-Jun-30 23:20 090 1 gusting 2 15.0
2015-Jun-30 23:15 090 15.0
2015-Jun-30 23:10 090 15.0
2015-Jun-30 23:05 090 0 gusting 0 15.0
2015-Jun-30 23:00 022 0 gusting 0 15.0
2015-Jun-30 22:55 022 0 gusting 1 15.0
2015-Jun-30 22:50 022 0 gusting 0 15.6
2015-Jun-30 22:45 090 1 gusting 3 15.6
2015-Jun-30 22:40 090 1 gusting 3 15.0
2015-Jun-30 22:35 067 0 gusting 1 15.0
2015-Jun-30 22:30 090 2 gusting 3 15.0
2015-Jun-30 22:25 112 1 gusting 2 15.0
2015-Jun-30 22:20 090 0 gusting 1 15.0
2015-Jun-30 22:15 067 15.0
2015-Jun-30 22:10 090 0 gusting 0 15.0
2015-Jun-30 22:05 067 15.0
2015-Jun-30 22:00 090 1 gusting 2 15.0
2015-Jun-30 21:55 090 15.0
2015-Jun-30 21:50 045 0 gusting 1 15.0
2015-Jun-30 21:45 067 15.0
2015-Jun-30 21:40 090 15.0
2015-Jun-30 21:35 067 15.0
2015-Jun-30 21:30 090 0 gusting 1 15.6
2015-Jun-30 21:25 090 1 gusting 1 15.6
2015-Jun-30 21:20 090 0 gusting 0 15.6
2015-Jun-30 21:15 090 15.6
2015-Jun-30 21:10 112 1 gusting 1 15.6
2015-Jun-30 21:05 090 0 gusting 1 15.6
2015-Jun-30 21:00 045 0 gusting 0 15.6
2015-Jun-30 20:55 090 3 gusting 4 15.6
2015-Jun-30 20:50 157 1 gusting 2 15.6
2015-Jun-30 20:45 090 0 gusting 1 15.6
2015-Jun-30 20:40 090 0 gusting 1 15.6
2015-Jun-30 20:35 067 0 gusting 0 15.6
2015-Jun-30 20:30 15.6
2015-Jun-30 20:25 067 15.6
2015-Jun-30 20:20 15.6
2015-Jun-30 20:15 022 0 gusting 0 15.6
2015-Jun-30 20:10 112 2 gusting 3 15.6
2015-Jun-30 20:05 135 0 gusting 0 15.6
2015-Jun-30 20:00 090 1 gusting 2 15.6
2015-Jun-30 19:55 090 1 gusting 2 15.6
2015-Jun-30 19:50 090 15.6
2015-Jun-30 19:45 090 15.6
2015-Jun-30 19:40 270 0 gusting 2 15.6
2015-Jun-30 19:35 067 3 gusting 5 15.6
2015-Jun-30 19:30 090 4 gusting 5 15.6
2015-Jun-30 19:25 090 5 gusting 6 15.6
2015-Jun-30 19:20 090 4 gusting 6 15.0
2015-Jun-30 19:15 090 0 gusting 0 15.0
2015-Jun-30 19:10 067 3 gusting 4 15.0
2015-Jun-30 19:05 045 1 gusting 2 15.0
2015-Jun-30 19:00 045 0 gusting 1 15.0
2015-Jun-30 18:55 022 3 gusting 6 15.0
2015-Jun-30 18:50 15.0
2015-Jun-30 18:45 045 3 gusting 5 15.0
2015-Jun-30 18:40 045 4 gusting 6 14.4
2015-Jun-30 18:35 14.4
2015-Jun-30 18:30 337 6 gusting 8 14.4
2015-Jun-30 18:25 022 4 gusting 5 14.4
2015-Jun-30 18:20 15.0
2015-Jun-30 18:15 15.0
2015-Jun-30 18:10 045 4 gusting 6 15.0
2015-Jun-30 18:05 15.6
2015-Jun-30 18:00 16.1
2015-Jun-30 17:55 337 2 gusting 4 16.1
2015-Jun-30 17:50 045 5 gusting 8 16.7
2015-Jun-30 17:45 022 3 gusting 5 16.7
2015-Jun-30 17:40 16.7
2015-Jun-30 17:35 315 1 gusting 2 17.2
2015-Jun-30 17:30 315 5 gusting 6 17.2
2015-Jun-30 17:25 17.2
2015-Jun-30 17:20 18.3
2015-Jun-30 17:15 19.4
2015-Jun-30 17:10 337 4 gusting 7 19.4
2015-Jun-30 17:05 045 4 gusting 7 19.4
2015-Jun-30 17:00 20.0
2015-Jun-30 16:55 20.0
2015-Jun-30 16:50 022 11 gusting 15 20.6
2015-Jun-30 16:45 022 7 gusting 12 21.1
2015-Jun-30 16:40 045 6 gusting 8 21.7
2015-Jun-30 16:35 022 11 gusting 15 22.2
2015-Jun-30 16:30 045 4 gusting 7 22.8
2015-Jun-30 16:25 090 3 gusting 6 23.3
2015-Jun-30 16:20 067 4 gusting 8 23.9
2015-Jun-30 16:15 022 4 gusting 6 25.0
2015-Jun-30 16:10 090 25.0
2015-Jun-30 16:05 090 3 gusting 4 25.6
2015-Jun-30 16:00 090 1 gusting 2 25.6
2015-Jun-30 15:55 045 1 gusting 3 25.0
2015-Jun-30 15:45 112 2 gusting 5 25.0
2015-Jun-30 15:40 112 1 gusting 3 25.0
2015-Jun-30 15:35 045 25.0
2015-Jun-30 15:30 112 0 gusting 1 25.6
2015-Jun-30 15:25 292 25.6
2015-Jun-30 15:20 337 0 gusting 2 25.6
2015-Jun-30 15:15 090 0 gusting 1 25.6
2015-Jun-30 15:10 022 2 gusting 3 25.6
2015-Jun-30 15:05 25.6
2015-Jun-30 15:00 067 2 gusting 5 25.0
2015-Jun-30 14:55 180 5 gusting 7 25.6
2015-Jun-30 14:50 090 5 gusting 9 25.6
2015-Jun-30 14:45 022 1 gusting 4 26.1
2015-Jun-30 14:40 090 0 gusting 1 26.1
2015-Jun-30 14:35 090 0 gusting 1 26.1
2015-Jun-30 14:30 045 2 gusting 3 26.1
2015-Jun-30 14:25 25.6
2015-Jun-30 14:20 112 5 gusting 7 26.1
2015-Jun-30 14:15 090 3 gusting 5 26.1
2015-Jun-30 14:10 090 3 gusting 5 26.1
2015-Jun-30 14:05 135 2 gusting 3 26.1
2015-Jun-30 14:00 135 3 gusting 5 26.7
2015-Jun-30 13:55 067 2 gusting 5 26.7
2015-Jun-30 13:50 090 3 gusting 5 26.7
2015-Jun-30 13:45 090 2 gusting 4 26.7
2015-Jun-30 13:40 090 4 gusting 6 27.2
2015-Jun-30 13:35 112 5 gusting 6 27.2
2015-Jun-30 13:30 247 2 gusting 6 27.2
2015-Jun-30 13:25 135 5 gusting 7 27.2
2015-Jun-30 13:20 112 4 gusting 7 27.8
2015-Jun-30 13:15 112 2 gusting 4 27.2
2015-Jun-30 13:10 067 4 gusting 6 26.7
2015-Jun-30 13:05 112 5 gusting 7 26.1
2015-Jun-30 13:00 067 3 gusting 4 26.1
2015-Jun-30 12:55 112 9 gusting 11 26.1
2015-Jun-30 12:50 112 6 gusting 6 26.1
2015-Jun-30 12:45 067 4 gusting 7 26.1
2015-Jun-30 12:40 112 2 gusting 5 26.1
2015-Jun-30 12:35 090 6 gusting 9 26.7
2015-Jun-30 12:30 067 6 gusting 9 26.1
2015-Jun-30 12:25 090 6 gusting 13 26.7
2015-Jun-30 12:20 090 6 gusting 8 26.1
2015-Jun-30 12:15 112 6 gusting 11 26.7
2015-Jun-30 12:10 090 5 gusting 7 27.8
2015-Jun-30 12:05 112 3 gusting 6 28.3
2015-Jun-30 12:00 045 6 gusting 9 28.9